Ne plus se rappeler de moi
Bonjour et Bienvenue
Pas de session ouverte
Vendredi 31/10/2014
d:\inetpub\wwwroot\acrroussillon\reservation\ACR\IMAGES\IMG1.JPGd:\inetpub\wwwroot\acrroussillon\reservation\ACR\IMAGES\IMG2.JPGd:\inetpub\wwwroot\acrroussillon\reservation\ACR/IMAGES/IMG3.jpg
00:00:00
Horaires du 31/10/2014 (Données à titre indicatif seulement).
Lever du soleil : 07h21 - Coucher du soleil : 17h43 (Heure Locale)
Jour aéronautique : 06h51 - Nuit aéronautique : 18h13 (Heure Locale)
Planning des réservations des aéronefs
Planning des réservations des aéronefs
2014/10/31 12:30
LFMP 311230Z 10006KT 060V170 9999 SCT016 20/13 Q1024 NOSIG
Planning des réservations des aéronefs
2014/10/31 12:15
TAF LFMP 311100Z 3112/0112 09005KT 9999 SCT015
BECMG 3118/3120 8000 BKN015
BECMG 0100/0103 5000 BR BKN010
BECMG 0103/0106 30007KT
BECMG 0109/0112 9999 SCT015
Informations sur les aéronefs
Informations sur les aéronefs
Modifications des Types de vols
ATTENTION PLUS DE PAIEMENT EN LIGNE DEPUIS LA MAISON
AEROCLUB DU ROUSSILLON. AVENUE MAURICE BELLONTE. 66000 PERPIGNAN. Tel : 04.68.73.48.18 Fax : 09.55.16.18.97 Courriel : aeroclub-roussillon@hotmail.fr
 METAR / TAF
LIENS UTILES
envoyer un e-mail
d:\inetpub\wwwroot\acrroussillon\reservation\ACR/IMAGES/Logo.jpg
Identifiez vous pour interaction
d:\inetpub\wwwroot\acrroussillon\reservation\ACR/IMAGES/Logo.jpg
Aéro-Club du Roussillon